sensor_id;sensor_type;location;lat;lon;timestamp;pressure;altitude;pressure_sealevel;temperature;humidity
18137;BME280;9194;42.632;23.298;2023-11-18T00:02:46;91884.59;;;4.20;100.00
18137;BME280;9194;42.632;23.298;2023-11-18T00:07:48;91901.66;;;4.14;100.00
18137;BME280;9194;42.632;23.298;2023-11-18T00:12:49;91887.41;;;4.12;100.00
18137;BME280;9194;42.632;23.298;2023-11-18T00:17:51;91936.53;;;4.10;100.00
18137;BME280;9194;42.632;23.298;2023-11-18T00:22:53;91920.28;;;4.17;100.00
18137;BME280;9194;42.632;23.298;2023-11-18T00:27:56;91911.38;;;4.12;100.00
18137;BME280;9194;42.632;23.298;2023-11-18T00:32:58;91888.22;;;4.06;100.00
18137;BME280;9194;42.632;23.298;2023-11-18T00:38:00;91887.41;;;4.12;100.00
18137;BME280;9194;42.632;23.298;2023-11-18T00:43:01;91885.81;;;4.11;100.00
18137;BME280;9194;42.632;23.298;2023-11-18T00:48:04;91889.81;;;4.00;100.00
18137;BME280;9194;42.632;23.298;2023-11-18T00:53:06;91901.09;;;3.99;100.00
18137;BME280;9194;42.632;23.298;2023-11-18T00:58:07;91894.94;;;3.94;100.00
18137;BME280;9194;42.632;23.298;2023-11-18T01:03:09;91890.19;;;3.91;100.00
18137;BME280;9194;42.632;23.298;2023-11-18T01:08:11;91895.56;;;3.96;100.00
18137;BME280;9194;42.632;23.298;2023-11-18T01:13:12;91906.84;;;3.82;100.00
18137;BME280;9194;42.632;23.298;2023-11-18T01:18:14;91932.38;;;3.77;100.00
18137;BME280;9194;42.632;23.298;2023-11-18T01:23:15;91910.19;;;3.76;100.00
18137;BME280;9194;42.632;23.298;2023-11-18T01:28:17;91911.97;;;3.68;100.00
18137;BME280;9194;42.632;23.298;2023-11-18T01:33:18;91914.97;;;3.72;100.00
18137;BME280;9194;42.632;23.298;2023-11-18T01:38:19;91924.63;;;3.63;100.00
18137;BME280;9194;42.632;23.298;2023-11-18T01:43:21;91908.81;;;3.60;100.00
18137;BME280;9194;42.632;23.298;2023-11-18T01:48:23;91916.50;;;3.47;100.00
18137;BME280;9194;42.632;23.298;2023-11-18T01:53:28;91910.97;;;3.43;100.00
18137;BME280;9194;42.632;23.298;2023-11-18T01:58:30;91912.53;;;3.44;100.00
18137;BME280;9194;42.632;23.298;2023-11-18T02:03:32;91928.75;;;3.32;100.00
18137;BME280;9194;42.632;23.298;2023-11-18T02:08:34;91921.03;;;3.38;100.00
18137;BME280;9194;42.632;23.298;2023-11-18T02:13:39;91915.31;;;3.36;100.00
18137;BME280;9194;42.632;23.298;2023-11-18T02:18:42;91907.75;;;3.28;100.00
18137;BME280;9194;42.632;23.298;2023-11-18T02:23:44;91939.19;;;3.17;100.00
18137;BME280;9194;42.632;23.298;2023-11-18T02:28:45;91921.38;;;3.15;100.00
18137;BME280;9194;42.632;23.298;2023-11-18T02:34:07;91919.19;;;3.06;100.00
18137;BME280;9194;42.632;23.298;2023-11-18T02:39:22;91922.53;;;3.00;100.00
18137;BME280;9194;42.632;23.298;2023-11-18T02:44:27;91912.63;;;2.97;100.00
18137;BME280;9194;42.632;23.298;2023-11-18T02:49:31;91907.28;;;2.98;100.00
18137;BME280;9194;42.632;23.298;2023-11-18T02:54:32;91926.06;;;2.99;100.00
18137;BME280;9194;42.632;23.298;2023-11-18T02:59:34;91931.41;;;2.91;100.00
18137;BME280;9194;42.632;23.298;2023-11-18T03:04:35;91930.41;;;2.85;100.00
18137;BME280;9194;42.632;23.298;2023-11-18T03:09:36;91955.66;;;2.81;100.00
18137;BME280;9194;42.632;23.298;2023-11-18T03:14:40;91962.00;;;2.85;100.00
18137;BME280;9194;42.632;23.298;2023-11-18T03:19:42;91971.69;;;2.83;100.00
18137;BME280;9194;42.632;23.298;2023-11-18T03:24:44;91969.00;;;2.64;100.00
18137;BME280;9194;42.632;23.298;2023-11-18T03:29:45;91986.81;;;2.65;100.00
18137;BME280;9194;42.632;23.298;2023-11-18T03:34:47;91987.66;;;2.72;100.00
18137;BME280;9194;42.632;23.298;2023-11-18T03:39:48;91970.25;;;2.68;100.00
18137;BME280;9194;42.632;23.298;2023-11-18T03:44:49;91996.66;;;2.55;100.00
18137;BME280;9194;42.632;23.298;2023-11-18T03:49:51;91994.88;;;2.56;100.00
18137;BME280;9194;42.632;23.298;2023-11-18T03:54:52;92005.63;;;2.38;100.00
18137;BME280;9194;42.632;23.298;2023-11-18T03:59:53;91997.31;;;2.36;100.00
18137;BME280;9194;42.632;23.298;2023-11-18T04:04:54;91984.19;;;2.24;100.00
18137;BME280;9194;42.632;23.298;2023-11-18T04:09:56;91987.91;;;2.22;100.00
18137;BME280;9194;42.632;23.298;2023-11-18T04:14:57;91997.94;;;2.17;100.00
18137;BME280;9194;42.632;23.298;2023-11-18T04:19:58;92020.81;;;2.12;100.00
18137;BME280;9194;42.632;23.298;2023-11-18T04:24:59;92023.56;;;2.10;100.00
18137;BME280;9194;42.632;23.298;2023-11-18T04:30:01;92015.63;;;2.05;100.00
18137;BME280;9194;42.632;23.298;2023-11-18T04:35:03;92027.44;;;1.99;100.00
18137;BME280;9194;42.632;23.298;2023-11-18T04:40:09;92019.97;;;2.04;100.00
18137;BME280;9194;42.632;23.298;2023-11-18T04:45:15;92022.06;;;1.94;100.00
18137;BME280;9194;42.632;23.298;2023-11-18T04:50:16;92033.69;;;1.90;100.00
18137;BME280;9194;42.632;23.298;2023-11-18T04:55:18;92036.25;;;1.90;100.00
18137;BME280;9194;42.632;23.298;2023-11-18T05:00:19;92028.53;;;1.90;100.00
18137;BME280;9194;42.632;23.298;2023-11-18T05:05:21;92012.69;;;1.87;100.00
18137;BME280;9194;42.632;23.298;2023-11-18T05:10:23;92010.75;;;1.89;100.00
18137;BME280;9194;42.632;23.298;2023-11-18T05:15:25;92018.34;;;1.97;100.00
18137;BME280;9194;42.632;23.298;2023-11-18T05:20:26;91997.25;;;2.01;100.00
18137;BME280;9194;42.632;23.298;2023-11-18T05:25:28;91992.72;;;2.03;100.00
18137;BME280;9194;42.632;23.298;2023-11-18T06:48:16;91951.16;;;2.49;100.00
18137;BME280;9194;42.632;23.298;2023-11-18T06:53:22;91998.91;;;2.71;100.00
18137;BME280;9194;42.632;23.298;2023-11-18T06:58:23;91979.56;;;2.75;100.00
18137;BME280;9194;42.632;23.298;2023-11-18T07:03:24;92004.09;;;2.78;100.00
18137;BME280;9194;42.632;23.298;2023-11-18T07:08:25;92024.91;;;2.89;100.00
18137;BME280;9194;42.632;23.298;2023-11-18T07:13:27;92020.38;;;2.98;100.00
18137;BME280;9194;42.632;23.298;2023-11-18T07:18:29;92028.00;;;2.78;100.00
18137;BME280;9194;42.632;23.298;2023-11-18T07:23:33;92017.59;;;2.59;100.00
18137;BME280;9194;42.632;23.298;2023-11-18T07:28:37;92021.50;;;2.48;100.00
18137;BME280;9194;42.632;23.298;2023-11-18T07:33:38;92017.16;;;2.48;100.00
18137;BME280;9194;42.632;23.298;2023-11-18T07:38:40;92031.06;;;2.33;100.00
18137;BME280;9194;42.632;23.298;2023-11-18T07:43:41;92050.03;;;2.32;100.00
18137;BME280;9194;42.632;23.298;2023-11-18T07:48:42;92055.97;;;2.11;100.00
18137;BME280;9194;42.632;23.298;2023-11-18T07:53:44;92042.56;;;2.16;100.00
18137;BME280;9194;42.632;23.298;2023-11-18T07:58:45;92036.41;;;2.10;100.00
18137;BME280;9194;42.632;23.298;2023-11-18T08:03:47;92038.56;;;2.06;100.00
18137;BME280;9194;42.632;23.298;2023-11-18T08:08:48;92052.53;;;2.04;100.00
18137;BME280;9194;42.632;23.298;2023-11-18T08:13:50;92039.41;;;2.14;100.00
18137;BME280;9194;42.632;23.298;2023-11-18T08:18:51;92050.38;;;2.29;100.00
18137;BME280;9194;42.632;23.298;2023-11-18T08:23:52;92056.19;;;2.37;100.00
18137;BME280;9194;42.632;23.298;2023-11-18T08:28:54;92033.44;;;2.34;100.00
18137;BME280;9194;42.632;23.298;2023-11-18T08:33:55;92047.50;;;2.38;100.00
18137;BME280;9194;42.632;23.298;2023-11-18T08:39:03;92043.63;;;2.77;100.00
18137;BME280;9194;42.632;23.298;2023-11-18T08:44:08;92074.50;;;2.56;100.00
18137;BME280;9194;42.632;23.298;2023-11-18T08:49:16;92073.03;;;2.46;100.00
18137;BME280;9194;42.632;23.298;2023-11-18T08:54:22;92082.22;;;2.34;100.00
18137;BME280;9194;42.632;23.298;2023-11-18T08:59:23;92094.81;;;2.29;100.00
18137;BME280;9194;42.632;23.298;2023-11-18T09:04:28;92066.03;;;2.34;100.00
18137;BME280;9194;42.632;23.298;2023-11-18T09:09:29;92055.75;;;2.34;100.00
18137;BME280;9194;42.632;23.298;2023-11-18T09:14:33;92077.81;;;2.28;100.00
18137;BME280;9194;42.632;23.298;2023-11-18T09:19:35;92070.00;;;2.36;100.00
18137;BME280;9194;42.632;23.298;2023-11-18T09:32:17;92069.31;;;2.49;100.00
18137;BME280;9194;42.632;23.298;2023-11-18T09:37:19;92074.63;;;2.47;100.00
18137;BME280;9194;42.632;23.298;2023-11-18T09:42:21;92058.25;;;2.48;100.00
18137;BME280;9194;42.632;23.298;2023-11-18T09:47:25;92085.47;;;2.43;100.00
18137;BME280;9194;42.632;23.298;2023-11-18T09:52:30;92061.78;;;2.47;100.00
18137;BME280;9194;42.632;23.298;2023-11-18T09:57:38;92086.34;;;2.57;100.00
18137;BME280;9194;42.632;23.298;2023-11-18T10:02:41;92076.16;;;2.42;100.00
18137;BME280;9194;42.632;23.298;2023-11-18T10:07:45;92061.22;;;2.52;100.00
18137;BME280;9194;42.632;23.298;2023-11-18T10:12:49;92050.66;;;2.40;100.00
18137;BME280;9194;42.632;23.298;2023-11-18T10:17:54;92060.44;;;2.52;100.00
18137;BME280;9194;42.632;23.298;2023-11-18T10:23:07;92063.78;;;2.52;100.00
18137;BME280;9194;42.632;23.298;2023-11-18T10:28:26;92069.03;;;2.65;100.00
18137;BME280;9194;42.632;23.298;2023-11-18T10:33:29;92046.88;;;2.64;100.00
18137;BME280;9194;42.632;23.298;2023-11-18T10:38:40;92078.09;;;2.61;100.00
18137;BME280;9194;42.632;23.298;2023-11-18T10:44:05;92089.19;;;2.62;100.00
18137;BME280;9194;42.632;23.298;2023-11-18T10:49:06;92061.09;;;2.60;100.00
18137;BME280;9194;42.632;23.298;2023-11-18T10:54:14;92062.59;;;2.48;100.00
18137;BME280;9194;42.632;23.298;2023-11-18T10:59:18;92056.38;;;2.64;100.00
18137;BME280;9194;42.632;23.298;2023-11-18T11:04:22;92072.53;;;2.58;100.00
18137;BME280;9194;42.632;23.298;2023-11-18T11:09:24;92058.53;;;2.60;100.00
18137;BME280;9194;42.632;23.298;2023-11-18T11:14:32;92041.41;;;2.74;100.00
18137;BME280;9194;42.632;23.298;2023-11-18T11:20:04;92051.19;;;2.57;100.00
18137;BME280;9194;42.632;23.298;2023-11-18T11:35:56;92050.06;;;2.66;100.00
18137;BME280;9194;42.632;23.298;2023-11-18T11:41:01;92033.81;;;2.59;100.00
18137;BME280;9194;42.632;23.298;2023-11-18T11:46:06;92032.41;;;2.57;100.00
18137;BME280;9194;42.632;23.298;2023-11-18T11:51:25;92026.50;;;2.63;100.00
18137;BME280;9194;42.632;23.298;2023-11-18T11:56:42;92055.84;;;2.75;100.00
18137;BME280;9194;42.632;23.298;2023-11-18T12:01:47;92007.50;;;2.92;100.00
18137;BME280;9194;42.632;23.298;2023-11-18T12:06:53;92030.09;;;2.96;100.00
18137;BME280;9194;42.632;23.298;2023-11-18T12:11:57;92043.19;;;3.08;100.00
18137;BME280;9194;42.632;23.298;2023-11-18T12:17:04;92029.22;;;2.82;100.00
18137;BME280;9194;42.632;23.298;2023-11-18T12:22:11;92067.53;;;2.77;100.00
18137;BME280;9194;42.632;23.298;2023-11-18T12:43:49;92042.59;;;3.06;100.00
18137;BME280;9194;42.632;23.298;2023-11-18T12:49:00;92009.72;;;2.95;100.00
18137;BME280;9194;42.632;23.298;2023-11-18T12:54:02;92043.34;;;3.00;100.00
18137;BME280;9194;42.632;23.298;2023-11-18T12:59:04;92048.84;;;2.90;100.00
18137;BME280;9194;42.632;23.298;2023-11-18T13:04:07;92058.41;;;2.75;100.00
18137;BME280;9194;42.632;23.298;2023-11-18T13:09:09;92065.59;;;2.79;100.00
18137;BME280;9194;42.632;23.298;2023-11-18T13:14:11;92073.38;;;2.65;100.00
18137;BME280;9194;42.632;23.298;2023-11-18T13:19:23;92052.88;;;2.71;100.00
18137;BME280;9194;42.632;23.298;2023-11-18T13:24:26;92068.66;;;2.68;100.00
18137;BME280;9194;42.632;23.298;2023-11-18T13:29:27;92082.63;;;2.59;100.00
18137;BME280;9194;42.632;23.298;2023-11-18T13:34:30;92101.47;;;2.45;100.00
18137;BME280;9194;42.632;23.298;2023-11-18T13:39:37;92100.09;;;2.42;100.00
18137;BME280;9194;42.632;23.298;2023-11-18T13:44:42;92112.00;;;2.29;100.00
18137;BME280;9194;42.632;23.298;2023-11-18T13:49:44;92107.84;;;2.28;100.00
18137;BME280;9194;42.632;23.298;2023-11-18T13:54:47;92107.00;;;2.21;100.00
18137;BME280;9194;42.632;23.298;2023-11-18T14:03:19;92136.50;;;2.10;100.00
18137;BME280;9194;42.632;23.298;2023-11-18T14:08:23;92146.00;;;2.10;100.00
18137;BME280;9194;42.632;23.298;2023-11-18T14:13:25;92174.50;;;2.15;100.00
18137;BME280;9194;42.632;23.298;2023-11-18T14:18:31;92166.34;;;2.11;100.00
18137;BME280;9194;42.632;23.298;2023-11-18T14:23:32;92175.47;;;2.14;100.00
18137;BME280;9194;42.632;23.298;2023-11-18T14:28:34;92200.25;;;2.06;100.00
18137;BME280;9194;42.632;23.298;2023-11-18T14:33:35;92198.31;;;2.09;100.00
18137;BME280;9194;42.632;23.298;2023-11-18T14:38:38;92197.28;;;2.03;100.00
18137;BME280;9194;42.632;23.298;2023-11-18T14:43:39;92210.28;;;2.01;100.00
18137;BME280;9194;42.632;23.298;2023-11-18T14:48:42;92205.44;;;1.92;100.00
18137;BME280;9194;42.632;23.298;2023-11-18T14:53:44;92209.16;;;1.89;100.00
18137;BME280;9194;42.632;23.298;2023-11-18T14:58:45;92225.16;;;1.91;100.00
18137;BME280;9194;42.632;23.298;2023-11-18T15:03:50;92207.28;;;1.98;100.00
18137;BME280;9194;42.632;23.298;2023-11-18T15:08:51;92219.91;;;1.99;100.00
18137;BME280;9194;42.632;23.298;2023-11-18T15:13:54;92189.13;;;1.99;100.00
18137;BME280;9194;42.632;23.298;2023-11-18T15:18:57;92200.72;;;1.95;100.00
18137;BME280;9194;42.632;23.298;2023-11-18T15:23:58;92204.09;;;1.96;100.00
18137;BME280;9194;42.632;23.298;2023-11-18T15:29:04;92197.03;;;1.98;100.00
18137;BME280;9194;42.632;23.298;2023-11-18T15:34:15;92225.59;;;1.95;100.00
18137;BME280;9194;42.632;23.298;2023-11-18T15:39:16;92237.53;;;2.02;100.00
18137;BME280;9194;42.632;23.298;2023-11-18T15:44:18;92206.38;;;2.05;100.00
18137;BME280;9194;42.632;23.298;2023-11-18T15:49:21;92231.78;;;2.00;100.00
18137;BME280;9194;42.632;23.298;2023-11-18T15:54:22;92202.56;;;2.01;100.00
18137;BME280;9194;42.632;23.298;2023-11-18T15:59:23;92224.50;;;2.04;100.00
18137;BME280;9194;42.632;23.298;2023-11-18T16:04:27;92266.03;;;2.08;100.00
18137;BME280;9194;42.632;23.298;2023-11-18T16:09:28;92257.06;;;2.18;100.00
18137;BME280;9194;42.632;23.298;2023-11-18T16:14:29;92252.72;;;2.19;100.00
18137;BME280;9194;42.632;23.298;2023-11-18T16:19:31;92264.34;;;2.15;100.00
18137;BME280;9194;42.632;23.298;2023-11-18T16:24:32;92271.69;;;2.18;100.00
18137;BME280;9194;42.632;23.298;2023-11-18T16:29:34;92270.16;;;2.23;100.00
18137;BME280;9194;42.632;23.298;2023-11-18T16:34:35;92309.56;;;2.16;100.00
18137;BME280;9194;42.632;23.298;2023-11-18T16:39:36;92291.88;;;2.21;100.00
18137;BME280;9194;42.632;23.298;2023-11-18T16:44:37;92297.34;;;2.18;100.00
18137;BME280;9194;42.632;23.298;2023-11-18T16:49:39;92301.25;;;2.14;100.00
18137;BME280;9194;42.632;23.298;2023-11-18T16:54:41;92310.91;;;2.12;100.00
18137;BME280;9194;42.632;23.298;2023-11-18T16:59:42;92311.00;;;2.03;100.00
18137;BME280;9194;42.632;23.298;2023-11-18T17:04:44;92332.78;;;2.08;100.00
18137;BME280;9194;42.632;23.298;2023-11-18T17:09:46;92306.72;;;2.11;100.00
18137;BME280;9194;42.632;23.298;2023-11-18T17:14:48;92339.41;;;2.17;100.00
18137;BME280;9194;42.632;23.298;2023-11-18T17:19:50;92324.38;;;2.14;100.00
18137;BME280;9194;42.632;23.298;2023-11-18T17:24:51;92311.06;;;2.10;100.00
18137;BME280;9194;42.632;23.298;2023-11-18T17:29:52;92291.69;;;2.08;100.00
18137;BME280;9194;42.632;23.298;2023-11-18T17:34:56;92312.41;;;2.06;100.00
18137;BME280;9194;42.632;23.298;2023-11-18T17:39:58;92303.31;;;2.03;100.00
18137;BME280;9194;42.632;23.298;2023-11-18T17:44:59;92313.84;;;2.09;100.00
18137;BME280;9194;42.632;23.298;2023-11-18T17:50:07;92302.06;;;2.14;100.00
18137;BME280;9194;42.632;23.298;2023-11-18T17:55:10;92328.53;;;2.15;100.00
18137;BME280;9194;42.632;23.298;2023-11-18T18:00:14;92328.63;;;2.21;100.00
18137;BME280;9194;42.632;23.298;2023-11-18T18:05:23;92329.31;;;2.15;100.00
18137;BME280;9194;42.632;23.298;2023-11-18T18:10:25;92306.81;;;2.17;100.00
18137;BME280;9194;42.632;23.298;2023-11-18T18:15:29;92332.59;;;2.09;100.00
18137;BME280;9194;42.632;23.298;2023-11-18T18:20:31;92326.56;;;2.17;100.00
18137;BME280;9194;42.632;23.298;2023-11-18T18:25:32;92334.34;;;2.23;100.00
18137;BME280;9194;42.632;23.298;2023-11-18T18:30:49;92329.38;;;2.22;100.00
18137;BME280;9194;42.632;23.298;2023-11-18T18:35:50;92363.75;;;2.21;100.00
18137;BME280;9194;42.632;23.298;2023-11-18T18:40:51;92340.72;;;2.27;100.00
18137;BME280;9194;42.632;23.298;2023-11-18T18:45:53;92344.44;;;2.25;100.00
18137;BME280;9194;42.632;23.298;2023-11-18T18:50:54;92345.69;;;2.29;100.00
18137;BME280;9194;42.632;23.298;2023-11-18T18:55:55;92358.63;;;2.21;100.00
18137;BME280;9194;42.632;23.298;2023-11-18T19:00:57;92363.22;;;2.25;100.00
18137;BME280;9194;42.632;23.298;2023-11-18T19:06:04;92367.03;;;2.29;100.00
18137;BME280;9194;42.632;23.298;2023-11-18T19:11:05;92356.56;;;2.16;100.00
18137;BME280;9194;42.632;23.298;2023-11-18T19:16:07;92367.13;;;2.21;100.00
18137;BME280;9194;42.632;23.298;2023-11-18T19:21:10;92379.16;;;2.21;100.00
18137;BME280;9194;42.632;23.298;2023-11-18T19:26:12;92373.66;;;2.24;100.00
18137;BME280;9194;42.632;23.298;2023-11-18T19:31:13;92380.69;;;2.15;100.00
18137;BME280;9194;42.632;23.298;2023-11-18T19:36:16;92413.75;;;2.10;100.00
18137;BME280;9194;42.632;23.298;2023-11-18T19:41:17;92390.16;;;2.15;100.00
18137;BME280;9194;42.632;23.298;2023-11-18T19:46:18;92402.28;;;2.21;100.00
18137;BME280;9194;42.632;23.298;2023-11-18T19:51:22;92408.97;;;2.07;100.00
18137;BME280;9194;42.632;23.298;2023-11-18T19:56:23;92410.59;;;2.08;100.00
18137;BME280;9194;42.632;23.298;2023-11-18T20:01:24;92399.16;;;2.11;100.00
18137;BME280;9194;42.632;23.298;2023-11-18T20:06:26;92406.69;;;2.12;100.00
18137;BME280;9194;42.632;23.298;2023-11-18T20:11:27;92406.41;;;2.07;100.00
18137;BME280;9194;42.632;23.298;2023-11-18T20:16:31;92404.66;;;2.08;100.00
18137;BME280;9194;42.632;23.298;2023-11-18T20:21:37;92401.03;;;2.02;100.00
18137;BME280;9194;42.632;23.298;2023-11-18T20:26:38;92395.63;;;2.12;100.00
18137;BME280;9194;42.632;23.298;2023-11-18T20:31:39;92398.88;;;2.05;100.00
18137;BME280;9194;42.632;23.298;2023-11-18T20:36:41;92379.50;;;2.03;100.00
18137;BME280;9194;42.632;23.298;2023-11-18T20:41:46;92394.81;;;1.96;100.00
18137;BME280;9194;42.632;23.298;2023-11-18T20:46:48;92376.84;;;1.96;100.00
18137;BME280;9194;42.632;23.298;2023-11-18T20:51:51;92385.16;;;1.98;100.00
18137;BME280;9194;42.632;23.298;2023-11-18T20:56:55;92376.47;;;1.99;100.00
18137;BME280;9194;42.632;23.298;2023-11-18T21:01:56;92377.28;;;2.00;100.00
18137;BME280;9194;42.632;23.298;2023-11-18T21:06:57;92383.75;;;1.96;100.00
18137;BME280;9194;42.632;23.298;2023-11-18T21:11:59;92376.75;;;2.04;100.00
18137;BME280;9194;42.632;23.298;2023-11-18T21:17:00;92377.28;;;2.00;100.00
18137;BME280;9194;42.632;23.298;2023-11-18T21:22:01;92387.31;;;2.10;100.00
18137;BME280;9194;42.632;23.298;2023-11-18T21:27:03;92384.81;;;2.01;100.00
18137;BME280;9194;42.632;23.298;2023-11-18T21:32:07;92397.47;;;2.03;100.00
18137;BME280;9194;42.632;23.298;2023-11-18T21:37:08;92384.56;;;2.11;100.00
18137;BME280;9194;42.632;23.298;2023-11-18T21:42:13;92393.41;;;2.09;100.00
18137;BME280;9194;42.632;23.298;2023-11-18T21:47:15;92383.75;;;2.11;100.00
18137;BME280;9194;42.632;23.298;2023-11-18T21:52:17;92400.16;;;2.10;100.00
18137;BME280;9194;42.632;23.298;2023-11-18T21:57:18;92400.22;;;2.16;100.00
18137;BME280;9194;42.632;23.298;2023-11-18T22:02:20;92390.94;;;2.15;100.00
18137;BME280;9194;42.632;23.298;2023-11-18T22:07:23;92411.03;;;2.12;100.00
18137;BME280;9194;42.632;23.298;2023-11-18T22:12:24;92428.94;;;2.20;100.00
18137;BME280;9194;42.632;23.298;2023-11-18T22:17:27;92428.94;;;2.20;100.00
18137;BME280;9194;42.632;23.298;2023-11-18T22:22:28;92424.50;;;2.14;100.00
18137;BME280;9194;42.632;23.298;2023-11-18T22:27:29;92423.69;;;2.13;100.00
18137;BME280;9194;42.632;23.298;2023-11-18T22:32:34;92429.25;;;2.17;100.00
18137;BME280;9194;42.632;23.298;2023-11-18T22:37:38;92429.47;;;2.15;100.00
18137;BME280;9194;42.632;23.298;2023-11-18T22:42:39;92426.41;;;2.12;100.00
18137;BME280;9194;42.632;23.298;2023-11-18T22:47:47;92432.88;;;2.08;100.00
18137;BME280;9194;42.632;23.298;2023-11-18T22:52:51;92444.22;;;2.13;100.00
18137;BME280;9194;42.632;23.298;2023-11-18T22:57:58;92442.53;;;2.05;100.00
18137;BME280;9194;42.632;23.298;2023-11-18T23:02:59;92464.03;;;2.04;100.00
18137;BME280;9194;42.632;23.298;2023-11-18T23:08:05;92465.91;;;2.11;100.00
18137;BME280;9194;42.632;23.298;2023-11-18T23:13:09;92467.41;;;2.05;100.00
18137;BME280;9194;42.632;23.298;2023-11-18T23:18:11;92472.25;;;2.00;100.00
18137;BME280;9194;42.632;23.298;2023-11-18T23:23:12;92475.97;;;1.97;100.00
18137;BME280;9194;42.632;23.298;2023-11-18T23:28:14;92477.34;;;2.08;100.00
18137;BME280;9194;42.632;23.298;2023-11-18T23:33:15;92490.22;;;2.00;100.00
18137;BME280;9194;42.632;23.298;2023-11-18T23:38:19;92483.69;;;1.97;100.00
18137;BME280;9194;42.632;23.298;2023-11-18T23:43:22;92489.16;;;1.94;100.00
18137;BME280;9194;42.632;23.298;2023-11-18T23:48:23;92496.59;;;2.04;100.00
18137;BME280;9194;42.632;23.298;2023-11-18T23:53:24;92492.91;;;2.06;100.00
18137;BME280;9194;42.632;23.298;2023-11-18T23:58:25;92503.84;;;2.00;100.00
